Rurrenabaque, Bolivia
Current Conditions -  °F | °C
As of 6:00 PM on Friday 28 Nov 2014 (Local Time) from SLLP Reporting Station
Broken Clouds Broken Clouds  
Wind Chill: 52°   Ceiling: 20000
Heat Index: 52°   Visibility: 6mi
Dew Point: 28°   Wind: 6mph
Humidity: 41%   Direction: 100°E
Pressure: 30.53"   Gusts: NA
Location:  14.46°S, 67.56°W
Report Text: SLLP 282200Z 10005KT 060V150 9999 FEW016 FEW017CB BKN200 11/M02 Q1034
Loading
Personal Weather Stations






























Interactive Weather Map New forecast layout! Learn more

10-Day Weather Forecast

Advertisements
Track Severe Weather on mobile